createdAt,value
2019-02-06T00:02:29.850Z,17.80
2019-02-06T00:05:55.403Z,18.50
2019-02-06T00:09:21.014Z,18.40
2019-02-06T00:12:46.591Z,17.47
2019-02-06T00:16:12.290Z,18.70
2019-02-06T00:19:38.054Z,18.33
2019-02-06T00:23:03.737Z,15.97
2019-02-06T00:26:29.744Z,17.43
2019-02-06T00:29:55.428Z,17.67
2019-02-06T00:33:20.986Z,18.60
2019-02-06T00:36:46.605Z,19.90
2019-02-06T00:40:12.557Z,18.23
2019-02-06T00:43:38.175Z,16.53
2019-02-06T00:47:04.145Z,18.20
2019-02-06T00:50:29.733Z,17.60
2019-02-06T00:53:55.324Z,18.03
2019-02-06T00:57:20.934Z,18.17
2019-02-06T01:00:46.631Z,18.37
2019-02-06T01:04:12.422Z,17.50
2019-02-06T01:07:38.085Z,18.70
2019-02-06T01:11:03.686Z,19.23
2019-02-06T01:14:29.548Z,17.77
2019-02-06T01:17:55.157Z,17.77
2019-02-06T01:21:20.728Z,16.90
2019-02-06T01:24:46.315Z,18.50
2019-02-06T01:28:12.279Z,16.00
2019-02-06T01:31:38.232Z,15.83
2019-02-06T01:35:04.633Z,14.73
2019-02-06T01:38:30.630Z,17.17
2019-02-06T01:41:56.811Z,17.00
2019-02-06T01:45:22.594Z,14.47
2019-02-06T01:48:48.209Z,15.63
2019-02-06T01:52:13.770Z,15.27
2019-02-06T01:55:39.357Z,20.47
2019-02-06T01:59:05.062Z,20.10
2019-02-06T02:02:30.711Z,18.93
2019-02-06T02:06:02.428Z,22.73
2019-02-06T02:09:23.652Z,21.80
2019-02-06T02:12:49.769Z,22.83
2019-02-06T02:16:15.383Z,25.20
2019-02-06T02:19:41.292Z,24.93
2019-02-06T02:23:07.012Z,21.33
2019-02-06T02:26:32.597Z,20.57
2019-02-06T02:29:58.611Z,21.43
2019-02-06T02:33:24.235Z,21.37
2019-02-06T02:36:50.021Z,22.10
2019-02-06T02:40:15.796Z,21.40
2019-02-06T02:43:41.404Z,19.77
2019-02-06T02:47:07.002Z,20.00
2019-02-06T02:50:32.623Z,17.80
2019-02-06T02:53:58.179Z,18.00
2019-02-06T02:57:23.784Z,19.00
2019-02-06T03:01:18.028Z,18.93
2019-02-06T03:04:51.194Z,18.00
2019-02-06T03:08:17.164Z,16.77
2019-02-06T03:11:43.352Z,18.43
2019-02-06T03:15:10.314Z,18.30
2019-02-06T03:18:36.261Z,17.10
2019-02-06T03:22:02.396Z,14.83
2019-02-06T03:25:27.983Z,15.97
2019-02-06T03:28:53.972Z,15.10
2019-02-06T03:32:19.654Z,15.10
2019-02-06T03:35:45.262Z,16.40
2019-02-06T03:39:11.588Z,15.47
2019-02-06T03:42:37.260Z,15.27
2019-02-06T03:46:02.875Z,14.73
2019-02-06T03:49:28.445Z,14.17
2019-02-06T03:52:54.063Z,15.80
2019-02-06T03:56:19.659Z,15.23
2019-02-06T03:59:45.700Z,17.07
2019-02-06T04:03:11.345Z,15.67
2019-02-06T04:06:36.935Z,15.57
2019-02-06T04:10:02.546Z,13.60
2019-02-06T04:13:28.361Z,13.53
2019-02-06T04:16:56.487Z,13.47
2019-02-06T04:20:22.086Z,13.60
2019-02-06T04:23:47.961Z,13.40
2019-02-06T04:27:13.548Z,13.00
2019-02-06T04:30:39.139Z,12.70
2019-02-06T04:34:04.717Z,12.43
2019-02-06T04:37:30.264Z,20.67
2019-02-06T04:40:55.954Z,16.50
2019-02-06T04:44:21.973Z,15.10
2019-02-06T04:47:47.574Z,15.97
2019-02-06T04:51:13.156Z,15.77
2019-02-06T04:54:41.604Z,17.77
2019-02-06T04:58:07.292Z,16.03
2019-02-06T05:01:32.917Z,15.03
2019-02-06T05:04:58.536Z,16.23
2019-02-06T05:08:24.204Z,19.20
2019-02-06T05:11:49.738Z,15.73
2019-02-06T05:15:15.975Z,16.10
2019-02-06T05:18:41.660Z,17.93
2019-02-06T05:22:07.243Z,15.30
2019-02-06T05:25:32.926Z,18.73
2019-02-06T05:28:58.570Z,20.27
2019-02-06T05:32:24.262Z,19.80
2019-02-06T05:35:49.803Z,17.33
2019-02-06T05:39:15.390Z,17.77
2019-02-06T05:42:40.946Z,16.07
2019-02-06T05:46:06.530Z,19.37
2019-02-06T05:49:32.746Z,18.17
2019-02-06T05:52:58.520Z,20.53
2019-02-06T05:56:24.460Z,22.77
2019-02-06T05:59:50.393Z,24.47
2019-02-06T06:03:16.485Z,20.27
2019-02-06T06:06:42.052Z,18.60
2019-02-06T06:10:11.479Z,18.73
2019-02-06T06:13:39.041Z,21.07
2019-02-06T06:17:04.714Z,19.30
2019-02-06T06:20:30.277Z,18.80
2019-02-06T06:23:56.323Z,20.27
2019-02-06T06:27:21.970Z,17.87
2019-02-06T06:30:48.009Z,17.27
2019-02-06T06:34:13.600Z,16.73
2019-02-06T06:37:41.525Z,16.40
2019-02-06T06:41:09.828Z,14.40
2019-02-06T06:44:35.743Z,13.97
2019-02-06T06:48:01.329Z,14.83
2019-02-06T06:51:26.963Z,14.63
2019-02-06T06:54:52.568Z,14.97
2019-02-06T06:58:18.473Z,14.60
2019-02-06T07:01:44.155Z,14.50
2019-02-06T07:05:10.306Z,15.87
2019-02-06T07:08:35.944Z,14.87
2019-02-06T07:12:01.556Z,16.70
2019-02-06T07:15:32.826Z,24.63
2019-02-06T07:18:58.459Z,17.00
2019-02-06T07:22:24.113Z,14.20
2019-02-06T07:25:49.988Z,14.73
2019-02-06T07:29:15.705Z,14.77
2019-02-06T07:32:42.070Z,14.13
2019-02-06T07:36:07.626Z,14.93
2019-02-06T07:39:33.230Z,13.20
2019-02-06T07:42:59.148Z,14.47
2019-02-06T07:46:25.052Z,13.33
2019-02-06T07:49:50.670Z,15.50
2019-02-06T07:53:16.275Z,14.40
2019-02-06T07:56:41.921Z,13.43
2019-02-06T08:00:08.425Z,14.20
2019-02-06T08:03:34.036Z,13.63
2019-02-06T08:06:59.673Z,13.90
2019-02-06T08:10:30.660Z,14.03
2019-02-06T08:13:56.340Z,13.80
2019-02-06T08:17:21.965Z,13.57
2019-02-06T08:20:47.655Z,13.77
2019-02-06T08:24:13.245Z,13.80
2019-02-06T08:27:38.876Z,12.33
2019-02-06T08:31:04.600Z,13.40
2019-02-06T08:34:30.190Z,13.30
2019-02-06T08:37:55.895Z,12.73
2019-02-06T08:41:21.587Z,13.13
2019-02-06T08:44:47.591Z,12.43
2019-02-06T08:48:13.163Z,14.13
2019-02-06T08:51:38.754Z,12.23
2019-02-06T08:55:04.344Z,12.83
2019-02-06T08:58:30.023Z,12.97
2019-02-06T09:01:55.574Z,13.10
2019-02-06T09:05:21.282Z,13.30
2019-02-06T09:08:59.005Z,12.70
2019-02-06T09:12:14.465Z,12.60
2019-02-06T09:15:40.452Z,13.03
2019-02-06T09:19:06.502Z,11.20
2019-02-06T09:22:32.511Z,11.70
2019-02-06T09:25:58.403Z,13.17
2019-02-06T09:29:24.647Z,14.00
2019-02-06T09:32:50.652Z,12.80
2019-02-06T09:36:16.241Z,13.10
2019-02-06T09:39:42.205Z,14.83
2019-02-06T09:43:07.814Z,13.47
2019-02-06T09:46:33.692Z,12.57
2019-02-06T09:49:59.335Z,12.90
2019-02-06T09:53:24.940Z,12.63
2019-02-06T09:56:50.831Z,12.37
2019-02-06T10:00:23.463Z,11.87
2019-02-06T10:03:49.075Z,13.57
2019-02-06T10:07:14.588Z,12.33
2019-02-06T10:10:40.202Z,13.43
2019-02-06T10:14:06.231Z,12.60
2019-02-06T10:17:31.863Z,13.23
2019-02-06T10:20:57.623Z,13.13
2019-02-06T10:24:23.227Z,12.23
2019-02-06T10:27:48.981Z,13.20
2019-02-06T10:31:14.688Z,13.00
2019-02-06T10:34:40.342Z,11.77
2019-02-06T10:38:06.137Z,12.97
2019-02-06T10:41:31.709Z,12.47
2019-02-06T10:44:57.384Z,12.93
2019-02-06T10:48:23.106Z,13.97
2019-02-06T10:51:48.699Z,12.63
2019-02-06T10:55:14.636Z,11.97
2019-02-06T10:58:41.481Z,13.00
2019-02-06T11:02:07.849Z,13.47
2019-02-06T11:05:33.566Z,13.57
2019-02-06T11:08:59.160Z,12.10
2019-02-06T11:12:24.992Z,13.53
2019-02-06T11:15:50.639Z,13.23
2019-02-06T11:19:18.616Z,13.17
2019-02-06T11:22:44.209Z,13.20
2019-02-06T11:26:09.901Z,13.83
2019-02-06T11:29:35.533Z,13.07
2019-02-06T11:33:01.721Z,12.13
2019-02-06T11:36:27.345Z,12.67
2019-02-06T11:39:58.104Z,12.47
2019-02-06T11:43:22.669Z,13.17
2019-02-06T11:46:48.303Z,11.67
2019-02-06T11:50:16.838Z,11.80
2019-02-06T11:53:42.444Z,13.17
2019-02-06T11:57:08.033Z,12.33
2019-02-06T12:00:58.414Z,11.80
2019-02-06T12:04:24.371Z,12.03
2019-02-06T12:07:50.113Z,12.60
2019-02-06T12:11:15.671Z,12.63
2019-02-06T12:14:41.262Z,11.70
2019-02-06T12:18:07.878Z,11.63
2019-02-06T12:21:33.569Z,11.93
2019-02-06T12:24:59.122Z,12.27
2019-02-06T12:28:25.058Z,13.27
2019-02-06T12:31:50.689Z,14.10
2019-02-06T12:35:16.343Z,13.23
2019-02-06T12:38:52.798Z,13.40
2019-02-06T12:42:09.277Z,13.03
2019-02-06T12:45:34.891Z,13.57
2019-02-06T12:49:00.486Z,12.83
2019-02-06T12:52:26.094Z,12.73
2019-02-06T12:55:52.910Z,12.37
2019-02-06T12:59:18.593Z,12.77
2019-02-06T13:02:44.842Z,12.73
2019-02-06T13:06:10.755Z,12.33
2019-02-06T13:09:36.757Z,11.97
2019-02-06T13:13:03.716Z,12.33
2019-02-06T13:16:31.858Z,12.87
2019-02-06T13:19:58.012Z,13.17
2019-02-06T13:23:24.431Z,12.63
2019-02-06T13:26:50.636Z,11.17
2019-02-06T13:30:26.345Z,14.33
2019-02-06T13:33:51.994Z,11.23
2019-02-06T13:37:17.596Z,11.67
2019-02-06T13:40:45.901Z,12.27
2019-02-06T13:44:10.841Z,11.60
2019-02-06T13:47:37.103Z,11.97
2019-02-06T13:51:15.671Z,10.33
2019-02-06T13:54:30.705Z,12.33
2019-02-06T13:57:56.594Z,11.87
2019-02-06T14:01:25.710Z,11.13
2019-02-06T14:04:49.938Z,10.67
2019-02-06T14:08:18.568Z,12.60
2019-02-06T14:11:44.618Z,11.13
2019-02-06T14:15:13.931Z,10.93
2019-02-06T14:18:39.774Z,11.47
2019-02-06T14:22:05.691Z,11.27
2019-02-06T14:25:37.699Z,10.53
2019-02-06T14:29:50.622Z,9.93
2019-02-06T14:34:01.549Z,10.53
2019-02-06T14:38:11.418Z,10.07
2019-02-06T14:42:32.191Z,10.00
2019-02-06T14:46:57.952Z,9.27
2019-02-06T14:51:11.301Z,8.70
2019-02-06T14:55:04.891Z,10.67
2019-02-06T14:59:16.445Z,9.40
2019-02-06T15:04:18.836Z,10.17
2019-02-06T15:08:22.579Z,9.40
2019-02-06T15:12:54.012Z,10.07
2019-02-06T15:17:40.573Z,10.80
2019-02-06T15:21:37.094Z,8.90
2019-02-06T15:25:41.689Z,8.13
2019-02-06T15:30:05.255Z,9.97
2019-02-06T15:35:13.807Z,10.20
2019-02-06T15:39:55.919Z,9.27
2019-02-06T15:44:18.191Z,9.37
2019-02-06T15:48:56.143Z,10.37
2019-02-06T15:53:03.805Z,10.90
2019-02-06T15:57:29.509Z,9.20
2019-02-06T16:01:42.043Z,8.77
2019-02-06T16:06:23.330Z,7.97
2019-02-06T16:11:22.484Z,8.47
2019-02-06T16:15:47.244Z,8.50
2019-02-06T16:20:15.900Z,9.47
2019-02-06T16:24:22.441Z,9.40
2019-02-06T16:28:19.536Z,8.23
2019-02-06T16:32:37.843Z,8.40
2019-02-06T16:37:24.903Z,9.17
2019-02-06T16:41:59.800Z,7.93
2019-02-06T16:46:25.949Z,7.70
2019-02-06T16:50:41.094Z,9.77
2019-02-06T16:55:13.628Z,8.47
2019-02-06T16:59:44.158Z,8.77
2019-02-06T17:03:58.436Z,8.37
2019-02-06T17:08:32.061Z,7.97
2019-02-06T17:12:58.354Z,8.77
2019-02-06T17:17:09.571Z,9.10
2019-02-06T17:21:59.603Z,8.03
2019-02-06T17:26:29.466Z,6.93
2019-02-06T17:30:54.933Z,7.17
2019-02-06T17:35:15.552Z,7.57
2019-02-06T17:39:57.190Z,7.63
2019-02-06T17:44:37.473Z,8.63
2019-02-06T17:48:57.750Z,8.40
2019-02-06T17:53:27.953Z,8.03
2019-02-06T17:56:53.542Z,8.13
2019-02-06T18:01:05.919Z,8.60
2019-02-06T18:04:40.362Z,8.10
2019-02-06T18:08:06.918Z,8.87
2019-02-06T18:11:32.508Z,8.97
2019-02-06T18:14:58.511Z,9.30
2019-02-06T18:18:24.162Z,9.77
2019-02-06T18:21:49.758Z,8.87
2019-02-06T18:25:15.739Z,9.53
2019-02-06T18:28:41.788Z,9.87
2019-02-06T18:32:07.763Z,9.23
2019-02-06T18:35:33.884Z,9.90
2019-02-06T18:38:59.527Z,10.67
2019-02-06T18:42:25.195Z,10.50
2019-02-06T18:45:50.877Z,8.37
2019-02-06T18:49:21.004Z,9.50
2019-02-06T18:52:46.586Z,9.73
2019-02-06T18:56:12.152Z,9.87
2019-02-06T18:59:37.781Z,10.67
2019-02-06T19:03:06.129Z,9.77
2019-02-06T19:06:32.650Z,9.80
2019-02-06T19:09:58.635Z,9.93
2019-02-06T19:13:24.262Z,9.43
2019-02-06T19:16:49.911Z,10.37
2019-02-06T19:20:17.150Z,10.17
2019-02-06T19:23:50.885Z,9.80
2019-02-06T19:27:17.621Z,9.83
2019-02-06T19:30:43.311Z,9.37
2019-02-06T19:34:08.871Z,10.27
2019-02-06T19:37:35.181Z,9.63
2019-02-06T19:41:01.412Z,10.77
2019-02-06T19:44:27.053Z,10.53
2019-02-06T19:47:52.656Z,11.93
2019-02-06T19:51:18.764Z,10.90
2019-02-06T19:54:46.221Z,13.00
2019-02-06T19:58:12.113Z,13.67
2019-02-06T20:01:37.700Z,13.17
2019-02-06T20:05:03.431Z,12.97
2019-02-06T20:08:29.156Z,11.80
2019-02-06T20:11:57.790Z,13.73
2019-02-06T20:15:23.615Z,14.87
2019-02-06T20:18:49.164Z,16.00
2019-02-06T20:22:14.815Z,13.90
2019-02-06T20:25:40.737Z,14.43
2019-02-06T20:29:06.640Z,16.77
2019-02-06T20:32:32.310Z,18.37
2019-02-06T20:35:57.902Z,19.43
2019-02-06T20:39:23.561Z,15.80
2019-02-06T20:42:49.545Z,15.37
2019-02-06T20:46:15.287Z,15.33
2019-02-06T20:49:43.476Z,14.10
2019-02-06T20:53:10.135Z,17.50
2019-02-06T20:56:35.714Z,20.37
2019-02-06T21:00:01.350Z,16.03
2019-02-06T21:03:26.926Z,19.63
2019-02-06T21:06:52.541Z,19.67
2019-02-06T21:10:21.150Z,23.43
2019-02-06T21:13:48.825Z,24.50
2019-02-06T21:17:14.507Z,26.63
2019-02-06T21:24:18.456Z,23.00
2019-02-06T21:27:44.704Z,21.90
2019-02-06T21:31:10.354Z,25.83
2019-02-06T21:34:36.012Z,21.80
2019-02-06T21:38:02.096Z,23.43
2019-02-06T21:41:28.030Z,19.87
2019-02-06T21:44:53.688Z,19.87
2019-02-06T21:48:22.323Z,19.50
2019-02-06T21:52:07.168Z,18.60
2019-02-06T21:55:52.625Z,17.03
2019-02-06T21:59:37.044Z,19.63
2019-02-06T22:03:22.755Z,19.30
2019-02-06T22:07:07.562Z,22.40
2019-02-06T22:10:52.264Z,23.40
2019-02-06T22:14:29.073Z,19.33
2019-02-06T22:18:32.818Z,20.23
2019-02-06T22:22:17.513Z,22.07
2019-02-06T22:26:02.181Z,22.60
2019-02-06T22:29:48.536Z,25.67
2019-02-06T22:33:33.457Z,25.17
2019-02-06T22:37:36.890Z,22.67
2019-02-06T22:41:21.648Z,30.93
2019-02-06T22:45:46.572Z,30.03
2019-02-06T22:49:12.280Z,27.13
2019-02-06T22:52:57.195Z,28.93
2019-02-06T22:56:41.888Z,26.67
2019-02-06T23:01:07.723Z,25.00
2019-02-06T23:04:52.470Z,27.20
2019-02-06T23:08:37.137Z,28.23
2019-02-06T23:12:21.734Z,27.90
2019-02-06T23:16:02.494Z,33.17
2019-02-06T23:19:47.099Z,30.53
2019-02-06T23:23:31.897Z,30.73
2019-02-06T23:27:16.612Z,31.07
2019-02-06T23:31:01.321Z,30.47
2019-02-06T23:34:46.024Z,32.47
2019-02-06T23:38:30.775Z,28.17
2019-02-06T23:49:55.812Z,33.10
2019-02-06T23:53:40.610Z,34.60
2019-02-06T23:57:25.257Z,35.10
